sensor_id;sensor_type;location;lat;lon;timestamp;P1;durP1;ratioP1;P2;durP2;ratioP2
23280;SDS011;11809;56.390;-3.266;2024-03-17T11:33:56;17.77;;;5.05;;
23280;SDS011;11809;56.390;-3.266;2024-03-17T11:39:19;43.00;;;4.97;;
23280;SDS011;11809;56.390;-3.266;2024-03-17T11:41:51;21.27;;;4.20;;
23280;SDS011;11809;56.390;-3.266;2024-03-17T11:44:23;18.27;;;3.88;;
23280;SDS011;11809;56.390;-3.266;2024-03-17T11:46:53;22.75;;;4.47;;
23280;SDS011;11809;56.390;-3.266;2024-03-17T11:49:24;20.85;;;4.63;;
23280;SDS011;11809;56.390;-3.266;2024-03-17T11:51:54;10.82;;;3.67;;
23280;SDS011;11809;56.390;-3.266;2024-03-17T11:54:25;16.20;;;3.90;;
23280;SDS011;11809;56.390;-3.266;2024-03-17T11:56:54;24.45;;;4.65;;
23280;SDS011;11809;56.390;-3.266;2024-03-17T11:59:25;14.07;;;3.83;;
23280;SDS011;11809;56.390;-3.266;2024-03-17T12:01:54;19.85;;;3.53;;
23280;SDS011;11809;56.390;-3.266;2024-03-17T12:04:22;22.73;;;4.28;;
23280;SDS011;11809;56.390;-3.266;2024-03-17T12:06:54;26.43;;;4.47;;
23280;SDS011;11809;56.390;-3.266;2024-03-17T12:09:23;17.83;;;3.85;;
23280;SDS011;11809;56.390;-3.266;2024-03-17T12:11:57;18.55;;;3.85;;
23280;SDS011;11809;56.390;-3.266;2024-03-17T12:14:25;32.28;;;4.32;;
23280;SDS011;11809;56.390;-3.266;2024-03-17T12:16:55;19.05;;;3.58;;
23280;SDS011;11809;56.390;-3.266;2024-03-17T12:19:25;21.67;;;3.65;;
23280;SDS011;11809;56.390;-3.266;2024-03-17T12:21:57;26.75;;;3.60;;
23280;SDS011;11809;56.390;-3.266;2024-03-17T12:24:25;23.13;;;3.88;;
23280;SDS011;11809;56.390;-3.266;2024-03-17T12:26:56;37.60;;;4.63;;
23280;SDS011;11809;56.390;-3.266;2024-03-17T12:29:26;24.08;;;3.80;;
23280;SDS011;11809;56.390;-3.266;2024-03-17T12:31:58;40.92;;;3.58;;
23280;SDS011;11809;56.390;-3.266;2024-03-17T12:34:27;16.80;;;3.03;;
23280;SDS011;11809;56.390;-3.266;2024-03-17T12:37:02;19.63;;;3.35;;
23280;SDS011;11809;56.390;-3.266;2024-03-17T12:39:31;13.02;;;3.35;;
23280;SDS011;11809;56.390;-3.266;2024-03-17T12:42:01;19.55;;;3.35;;
23280;SDS011;11809;56.390;-3.266;2024-03-17T12:44:29;28.80;;;3.72;;
23280;SDS011;11809;56.390;-3.266;2024-03-17T12:46:59;27.50;;;3.97;;
23280;SDS011;11809;56.390;-3.266;2024-03-17T12:49:27;27.92;;;3.40;;
23280;SDS011;11809;56.390;-3.266;2024-03-17T12:51:57;23.88;;;2.97;;
23280;SDS011;11809;56.390;-3.266;2024-03-17T12:54:27;20.95;;;2.53;;
23280;SDS011;11809;56.390;-3.266;2024-03-17T12:57:04;40.35;;;5.22;;
23280;SDS011;11809;56.390;-3.266;2024-03-17T12:59:46;24.48;;;3.88;;
23280;SDS011;11809;56.390;-3.266;2024-03-17T13:02:33;21.50;;;3.28;;
23280;SDS011;11809;56.390;-3.266;2024-03-17T13:05:06;25.05;;;3.83;;
23280;SDS011;11809;56.390;-3.266;2024-03-17T13:07:46;29.50;;;3.47;;
23280;SDS011;11809;56.390;-3.266;2024-03-17T13:10:18;13.85;;;2.72;;
23280;SDS011;11809;56.390;-3.266;2024-03-17T13:12:48;30.98;;;3.22;;
23280;SDS011;11809;56.390;-3.266;2024-03-17T13:15:27;42.72;;;4.57;;
23280;SDS011;11809;56.390;-3.266;2024-03-17T13:17:57;35.97;;;4.47;;
23280;SDS011;11809;56.390;-3.266;2024-03-17T13:20:27;40.03;;;5.20;;
23280;SDS011;11809;56.390;-3.266;2024-03-17T13:22:57;40.72;;;4.43;;
23280;SDS011;11809;56.390;-3.266;2024-03-17T13:25:29;23.00;;;3.43;;
23280;SDS011;11809;56.390;-3.266;2024-03-17T13:28:00;32.50;;;4.40;;
23280;SDS011;11809;56.390;-3.266;2024-03-17T13:30:30;30.52;;;3.88;;
23280;SDS011;11809;56.390;-3.266;2024-03-17T13:33:02;28.75;;;3.63;;
23280;SDS011;11809;56.390;-3.266;2024-03-17T13:35:34;31.23;;;3.70;;
23280;SDS011;11809;56.390;-3.266;2024-03-17T13:38:05;25.15;;;3.85;;
23280;SDS011;11809;56.390;-3.266;2024-03-17T13:40:38;43.92;;;4.35;;
23280;SDS011;11809;56.390;-3.266;2024-03-17T13:43:08;21.33;;;3.67;;
23280;SDS011;11809;56.390;-3.266;2024-03-17T13:45:38;48.13;;;7.85;;
23280;SDS011;11809;56.390;-3.266;2024-03-17T13:50:38;37.53;;;4.82;;
23280;SDS011;11809;56.390;-3.266;2024-03-17T13:53:10;16.83;;;3.42;;
23280;SDS011;11809;56.390;-3.266;2024-03-17T13:55:42;33.10;;;4.32;;
23280;SDS011;11809;56.390;-3.266;2024-03-17T13:58:12;18.23;;;4.15;;
23280;SDS011;11809;56.390;-3.266;2024-03-17T14:00:41;18.27;;;3.55;;
23280;SDS011;11809;56.390;-3.266;2024-03-17T14:03:11;19.92;;;3.22;;
23280;SDS011;11809;56.390;-3.266;2024-03-17T14:05:40;15.90;;;3.03;;
23280;SDS011;11809;56.390;-3.266;2024-03-17T14:08:09;13.68;;;2.47;;
23280;SDS011;11809;56.390;-3.266;2024-03-17T14:10:38;18.13;;;3.17;;
23280;SDS011;11809;56.390;-3.266;2024-03-17T14:13:10;22.23;;;3.20;;
23280;SDS011;11809;56.390;-3.266;2024-03-17T14:15:39;20.80;;;3.13;;
23280;SDS011;11809;56.390;-3.266;2024-03-17T14:18:09;16.38;;;3.03;;
23280;SDS011;11809;56.390;-3.266;2024-03-17T14:20:38;19.00;;;2.72;;
23280;SDS011;11809;56.390;-3.266;2024-03-17T14:23:08;12.05;;;2.53;;
23280;SDS011;11809;56.390;-3.266;2024-03-17T14:25:37;9.77;;;2.00;;
23280;SDS011;11809;56.390;-3.266;2024-03-17T14:28:09;10.18;;;2.55;;
23280;SDS011;11809;56.390;-3.266;2024-03-17T14:30:38;15.15;;;2.42;;
23280;SDS011;11809;56.390;-3.266;2024-03-17T14:33:08;9.52;;;2.08;;
23280;SDS011;11809;56.390;-3.266;2024-03-17T14:35:37;6.05;;;2.08;;
23280;SDS011;11809;56.390;-3.266;2024-03-17T14:38:07;8.43;;;2.13;;
23280;SDS011;11809;56.390;-3.266;2024-03-17T14:40:36;8.35;;;1.77;;
23280;SDS011;11809;56.390;-3.266;2024-03-17T14:43:08;16.42;;;2.30;;
23280;SDS011;11809;56.390;-3.266;2024-03-17T14:45:38;31.77;;;3.33;;
23280;SDS011;11809;56.390;-3.266;2024-03-17T14:48:07;16.83;;;2.42;;
23280;SDS011;11809;56.390;-3.266;2024-03-17T14:53:07;11.32;;;2.30;;
23280;SDS011;11809;56.390;-3.266;2024-03-17T14:55:36;14.30;;;2.05;;
23280;SDS011;11809;56.390;-3.266;2024-03-17T14:58:05;8.18;;;1.95;;
23280;SDS011;11809;56.390;-3.266;2024-03-17T15:00:37;13.38;;;1.98;;
23280;SDS011;11809;56.390;-3.266;2024-03-17T15:03:07;8.48;;;1.80;;
23280;SDS011;11809;56.390;-3.266;2024-03-17T15:05:36;9.02;;;1.83;;
23280;SDS011;11809;56.390;-3.266;2024-03-17T15:08:07;8.82;;;1.73;;
23280;SDS011;11809;56.390;-3.266;2024-03-17T15:10:36;8.48;;;1.80;;
23280;SDS011;11809;56.390;-3.266;2024-03-17T15:13:06;7.88;;;1.58;;
23280;SDS011;11809;56.390;-3.266;2024-03-17T15:15:40;5.07;;;1.80;;
23280;SDS011;11809;56.390;-3.266;2024-03-17T15:18:11;4.88;;;1.48;;
23280;SDS011;11809;56.390;-3.266;2024-03-17T15:20:41;4.47;;;1.30;;
23280;SDS011;11809;56.390;-3.266;2024-03-17T15:23:10;8.30;;;1.48;;
23280;SDS011;11809;56.390;-3.266;2024-03-17T15:25:41;22.85;;;2.10;;
23280;SDS011;11809;56.390;-3.266;2024-03-17T15:28:12;75.68;;;4.65;;
23280;SDS011;11809;56.390;-3.266;2024-03-17T15:30:42;24.70;;;2.25;;
23280;SDS011;11809;56.390;-3.266;2024-03-17T15:33:11;21.15;;;2.58;;
23280;SDS011;11809;56.390;-3.266;2024-03-17T15:35:40;25.85;;;3.17;;
23280;SDS011;11809;56.390;-3.266;2024-03-17T15:38:10;26.65;;;2.92;;
23280;SDS011;11809;56.390;-3.266;2024-03-17T15:40:41;16.30;;;2.13;;
23280;SDS011;11809;56.390;-3.266;2024-03-17T15:43:14;19.98;;;2.80;;
23280;SDS011;11809;56.390;-3.266;2024-03-17T15:45:44;10.18;;;1.85;;
23280;SDS011;11809;56.390;-3.266;2024-03-17T15:48:13;16.45;;;2.15;;
23280;SDS011;11809;56.390;-3.266;2024-03-17T15:50:42;9.73;;;1.65;;
23280;SDS011;11809;56.390;-3.266;2024-03-17T15:53:12;15.52;;;1.90;;
23280;SDS011;11809;56.390;-3.266;2024-03-17T15:55:41;9.20;;;1.70;;
23280;SDS011;11809;56.390;-3.266;2024-03-17T15:58:10;9.38;;;1.60;;
23280;SDS011;11809;56.390;-3.266;2024-03-17T16:00:42;8.52;;;1.70;;
23280;SDS011;11809;56.390;-3.266;2024-03-17T16:03:11;8.32;;;1.40;;
23280;SDS011;11809;56.390;-3.266;2024-03-17T16:05:44;11.75;;;1.80;;
23280;SDS011;11809;56.390;-3.266;2024-03-17T16:10:44;8.00;;;1.52;;
23280;SDS011;11809;56.390;-3.266;2024-03-17T16:13:16;7.32;;;1.67;;
23280;SDS011;11809;56.390;-3.266;2024-03-17T16:15:49;10.45;;;1.70;;
23280;SDS011;11809;56.390;-3.266;2024-03-17T16:18:19;9.95;;;1.90;;
23280;SDS011;11809;56.390;-3.266;2024-03-17T16:20:59;4.68;;;1.70;;
23280;SDS011;11809;56.390;-3.266;2024-03-17T16:23:34;7.63;;;1.92;;
23280;SDS011;11809;56.390;-3.266;2024-03-17T16:26:07;4.63;;;1.65;;
23280;SDS011;11809;56.390;-3.266;2024-03-17T16:28:37;5.07;;;1.57;;
23280;SDS011;11809;56.390;-3.266;2024-03-17T16:31:09;8.15;;;1.48;;
23280;SDS011;11809;56.390;-3.266;2024-03-17T16:33:38;8.38;;;1.90;;
23280;SDS011;11809;56.390;-3.266;2024-03-17T16:36:08;5.22;;;1.73;;
23280;SDS011;11809;56.390;-3.266;2024-03-17T16:38:37;13.27;;;2.08;;
23280;SDS011;11809;56.390;-3.266;2024-03-17T16:41:07;11.70;;;1.80;;
23280;SDS011;11809;56.390;-3.266;2024-03-17T16:43:42;15.75;;;2.08;;
23280;SDS011;11809;56.390;-3.266;2024-03-17T16:46:28;14.07;;;1.98;;
23280;SDS011;11809;56.390;-3.266;2024-03-17T16:49:19;14.07;;;2.40;;
23280;SDS011;11809;56.390;-3.266;2024-03-17T16:51:50;14.32;;;2.10;;
23280;SDS011;11809;56.390;-3.266;2024-03-17T16:54:20;23.80;;;2.38;;
23280;SDS011;11809;56.390;-3.266;2024-03-17T16:56:50;19.90;;;2.42;;
23280;SDS011;11809;56.390;-3.266;2024-03-17T16:59:19;9.98;;;1.85;;
23280;SDS011;11809;56.390;-3.266;2024-03-17T17:01:52;16.60;;;2.38;;
23280;SDS011;11809;56.390;-3.266;2024-03-17T17:04:22;9.70;;;1.85;;
23280;SDS011;11809;56.390;-3.266;2024-03-17T17:06:52;12.60;;;1.93;;
23280;SDS011;11809;56.390;-3.266;2024-03-17T17:09:22;22.23;;;1.92;;
23280;SDS011;11809;56.390;-3.266;2024-03-17T17:11:55;13.15;;;1.90;;
23280;SDS011;11809;56.390;-3.266;2024-03-17T17:14:24;37.42;;;3.28;;
23280;SDS011;11809;56.390;-3.266;2024-03-17T17:16:58;20.73;;;2.20;;
23280;SDS011;11809;56.390;-3.266;2024-03-17T17:19:29;50.65;;;3.72;;
23280;SDS011;11809;56.390;-3.266;2024-03-17T17:21:58;36.03;;;2.97;;
23280;SDS011;11809;56.390;-3.266;2024-03-17T17:24:28;20.85;;;2.22;;
23280;SDS011;11809;56.390;-3.266;2024-03-17T17:26:58;19.35;;;2.15;;
23280;SDS011;11809;56.390;-3.266;2024-03-17T17:29:27;20.30;;;2.13;;
23280;SDS011;11809;56.390;-3.266;2024-03-17T17:32:06;15.93;;;2.05;;
23280;SDS011;11809;56.390;-3.266;2024-03-17T17:34:38;24.00;;;2.42;;
23280;SDS011;11809;56.390;-3.266;2024-03-17T17:37:07;16.48;;;2.55;;
23280;SDS011;11809;56.390;-3.266;2024-03-17T17:39:37;8.68;;;2.10;;
23280;SDS011;11809;56.390;-3.266;2024-03-17T17:42:09;25.70;;;3.05;;
23280;SDS011;11809;56.390;-3.266;2024-03-17T17:44:38;16.95;;;2.60;;
23280;SDS011;11809;56.390;-3.266;2024-03-17T17:47:12;18.35;;;2.90;;
23280;SDS011;11809;56.390;-3.266;2024-03-17T17:49:42;12.32;;;2.60;;
23280;SDS011;11809;56.390;-3.266;2024-03-17T17:52:12;8.02;;;2.25;;
23280;SDS011;11809;56.390;-3.266;2024-03-17T17:54:42;11.85;;;2.55;;
23280;SDS011;11809;56.390;-3.266;2024-03-17T17:57:11;7.90;;;1.90;;
23280;SDS011;11809;56.390;-3.266;2024-03-17T17:59:41;9.23;;;2.13;;
23280;SDS011;11809;56.390;-3.266;2024-03-17T18:02:13;4.28;;;1.75;;
23280;SDS011;11809;56.390;-3.266;2024-03-17T18:04:46;10.27;;;2.38;;
23280;SDS011;11809;56.390;-3.266;2024-03-17T18:07:16;14.80;;;3.00;;
23280;SDS011;11809;56.390;-3.266;2024-03-17T18:09:47;6.57;;;2.33;;
23280;SDS011;11809;56.390;-3.266;2024-03-17T18:12:16;6.13;;;1.92;;
23280;SDS011;11809;56.390;-3.266;2024-03-17T18:14:46;11.07;;;4.15;;
23280;SDS011;11809;56.390;-3.266;2024-03-17T18:17:21;13.25;;;2.92;;
23280;SDS011;11809;56.390;-3.266;2024-03-17T18:19:50;8.38;;;2.20;;
23280;SDS011;11809;56.390;-3.266;2024-03-17T18:22:20;6.22;;;2.22;;
23280;SDS011;11809;56.390;-3.266;2024-03-17T18:24:50;7.10;;;2.13;;
23280;SDS011;11809;56.390;-3.266;2024-03-17T18:27:20;4.65;;;2.08;;
23280;SDS011;11809;56.390;-3.266;2024-03-17T18:29:50;15.90;;;2.42;;
23280;SDS011;11809;56.390;-3.266;2024-03-17T18:32:22;9.48;;;2.10;;
23280;SDS011;11809;56.390;-3.266;2024-03-17T18:34:53;9.23;;;2.05;;
23280;SDS011;11809;56.390;-3.266;2024-03-17T18:37:23;4.10;;;1.63;;
23280;SDS011;11809;56.390;-3.266;2024-03-17T18:39:54;9.57;;;2.22;;
23280;SDS011;11809;56.390;-3.266;2024-03-17T18:42:24;4.82;;;1.50;;
23280;SDS011;11809;56.390;-3.266;2024-03-17T18:44:54;8.02;;;2.35;;
23280;SDS011;11809;56.390;-3.266;2024-03-17T18:47:29;6.43;;;2.58;;
23280;SDS011;11809;56.390;-3.266;2024-03-17T18:50:00;12.95;;;3.20;;
23280;SDS011;11809;56.390;-3.266;2024-03-17T18:52:32;10.55;;;2.88;;
23280;SDS011;11809;56.390;-3.266;2024-03-17T18:55:02;5.78;;;3.13;;
23280;SDS011;11809;56.390;-3.266;2024-03-17T18:57:37;6.90;;;3.20;;
23280;SDS011;11809;56.390;-3.266;2024-03-17T19:00:11;7.30;;;3.53;;
23280;SDS011;11809;56.390;-3.266;2024-03-17T19:02:46;6.45;;;3.50;;
23280;SDS011;11809;56.390;-3.266;2024-03-17T19:05:17;9.45;;;3.88;;
23280;SDS011;11809;56.390;-3.266;2024-03-17T19:07:47;9.95;;;4.25;;
23280;SDS011;11809;56.390;-3.266;2024-03-17T19:10:17;6.93;;;4.10;;
23280;SDS011;11809;56.390;-3.266;2024-03-17T19:12:46;7.88;;;4.00;;
23280;SDS011;11809;56.390;-3.266;2024-03-17T19:17:51;7.32;;;3.50;;
23280;SDS011;11809;56.390;-3.266;2024-03-17T19:20:21;14.55;;;4.85;;
23280;SDS011;11809;56.390;-3.266;2024-03-17T19:22:50;7.25;;;4.00;;
23280;SDS011;11809;56.390;-3.266;2024-03-17T19:25:21;6.28;;;3.80;;
23280;SDS011;11809;56.390;-3.266;2024-03-17T19:27:52;12.75;;;3.58;;
23280;SDS011;11809;56.390;-3.266;2024-03-17T19:30:23;4.97;;;3.47;;
23280;SDS011;11809;56.390;-3.266;2024-03-17T19:33:00;5.90;;;3.15;;
23280;SDS011;11809;56.390;-3.266;2024-03-17T19:35:30;9.23;;;3.95;;
23280;SDS011;11809;56.390;-3.266;2024-03-17T19:38:02;10.38;;;3.85;;
23280;SDS011;11809;56.390;-3.266;2024-03-17T19:40:32;11.45;;;5.10;;
23280;SDS011;11809;56.390;-3.266;2024-03-17T19:43:01;14.27;;;5.28;;
23280;SDS011;11809;56.390;-3.266;2024-03-17T19:45:34;14.20;;;5.65;;
23280;SDS011;11809;56.390;-3.266;2024-03-17T19:48:06;9.25;;;5.13;;
23280;SDS011;11809;56.390;-3.266;2024-03-17T19:50:36;14.40;;;7.00;;
23280;SDS011;11809;56.390;-3.266;2024-03-17T19:53:05;9.10;;;5.07;;
23280;SDS011;11809;56.390;-3.266;2024-03-17T19:55:35;11.55;;;4.25;;
23280;SDS011;11809;56.390;-3.266;2024-03-17T19:58:04;16.65;;;4.47;;
23280;SDS011;11809;56.390;-3.266;2024-03-17T20:00:36;12.48;;;3.92;;
23280;SDS011;11809;56.390;-3.266;2024-03-17T20:03:09;7.95;;;3.55;;
23280;SDS011;11809;56.390;-3.266;2024-03-17T20:05:41;17.25;;;3.85;;
23280;SDS011;11809;56.390;-3.266;2024-03-17T20:08:11;16.85;;;4.43;;
23280;SDS011;11809;56.390;-3.266;2024-03-17T20:10:40;9.63;;;3.67;;
23280;SDS011;11809;56.390;-3.266;2024-03-17T20:13:11;5.63;;;3.00;;
23280;SDS011;11809;56.390;-3.266;2024-03-17T20:15:41;15.33;;;2.60;;
23280;SDS011;11809;56.390;-3.266;2024-03-17T20:18:14;2.10;;;1.10;;
23280;SDS011;11809;56.390;-3.266;2024-03-17T20:20:44;6.15;;;1.58;;
23280;SDS011;11809;56.390;-3.266;2024-03-17T20:23:15;3.95;;;1.38;;
23280;SDS011;11809;56.390;-3.266;2024-03-17T20:25:45;9.82;;;1.83;;
23280;SDS011;11809;56.390;-3.266;2024-03-17T20:28:15;9.68;;;1.90;;
23280;SDS011;11809;56.390;-3.266;2024-03-17T20:30:46;8.48;;;1.48;;
23280;SDS011;11809;56.390;-3.266;2024-03-17T20:33:20;6.32;;;1.38;;
23280;SDS011;11809;56.390;-3.266;2024-03-17T20:35:50;5.82;;;1.52;;
23280;SDS011;11809;56.390;-3.266;2024-03-17T20:38:19;13.35;;;1.60;;
23280;SDS011;11809;56.390;-3.266;2024-03-17T20:40:49;12.95;;;1.73;;
23280;SDS011;11809;56.390;-3.266;2024-03-17T20:43:19;15.32;;;1.77;;
23280;SDS011;11809;56.390;-3.266;2024-03-17T20:45:48;11.05;;;1.25;;
23280;SDS011;11809;56.390;-3.266;2024-03-17T20:48:20;6.22;;;1.25;;
23280;SDS011;11809;56.390;-3.266;2024-03-17T20:50:50;4.30;;;1.05;;
23280;SDS011;11809;56.390;-3.266;2024-03-17T20:53:19;14.20;;;1.92;;
23280;SDS011;11809;56.390;-3.266;2024-03-17T20:55:48;13.57;;;1.33;;
23280;SDS011;11809;56.390;-3.266;2024-03-17T20:58:18;18.13;;;1.85;;
23280;SDS011;11809;56.390;-3.266;2024-03-17T21:00:48;8.13;;;1.20;;
23280;SDS011;11809;56.390;-3.266;2024-03-17T21:03:20;3.00;;;0.90;;
23280;SDS011;11809;56.390;-3.266;2024-03-17T21:05:51;20.42;;;1.65;;
23280;SDS011;11809;56.390;-3.266;2024-03-17T21:08:20;12.00;;;1.23;;
23280;SDS011;11809;56.390;-3.266;2024-03-17T21:10:56;7.20;;;1.33;;
23280;SDS011;11809;56.390;-3.266;2024-03-17T21:13:26;4.93;;;0.90;;
23280;SDS011;11809;56.390;-3.266;2024-03-17T21:15:56;4.45;;;0.80;;
23280;SDS011;11809;56.390;-3.266;2024-03-17T21:18:29;7.03;;;1.02;;
23280;SDS011;11809;56.390;-3.266;2024-03-17T21:21:02;5.70;;;0.77;;
23280;SDS011;11809;56.390;-3.266;2024-03-17T21:23:32;4.90;;;0.80;;
23280;SDS011;11809;56.390;-3.266;2024-03-17T21:26:02;4.15;;;0.63;;
23280;SDS011;11809;56.390;-3.266;2024-03-17T21:28:32;1.63;;;0.77;;
23280;SDS011;11809;56.390;-3.266;2024-03-17T21:31:02;4.47;;;1.02;;
23280;SDS011;11809;56.390;-3.266;2024-03-17T21:33:36;2.20;;;0.60;;
23280;SDS011;11809;56.390;-3.266;2024-03-17T21:36:06;3.40;;;0.70;;
23280;SDS011;11809;56.390;-3.266;2024-03-17T21:38:36;3.10;;;0.60;;
23280;SDS011;11809;56.390;-3.266;2024-03-17T21:41:08;1.42;;;0.60;;
23280;SDS011;11809;56.390;-3.266;2024-03-17T21:43:40;9.25;;;0.93;;
23280;SDS011;11809;56.390;-3.266;2024-03-17T21:46:10;4.40;;;0.40;;
23280;SDS011;11809;56.390;-3.266;2024-03-17T21:48:42;4.82;;;0.68;;
23280;SDS011;11809;56.390;-3.266;2024-03-17T21:51:12;3.67;;;0.70;;
23280;SDS011;11809;56.390;-3.266;2024-03-17T21:53:42;5.88;;;1.25;;
23280;SDS011;11809;56.390;-3.266;2024-03-17T21:56:11;31.80;;;1.83;;
23280;SDS011;11809;56.390;-3.266;2024-03-17T21:58:41;10.15;;;0.90;;
23280;SDS011;11809;56.390;-3.266;2024-03-17T22:01:08;7.50;;;0.90;;
23280;SDS011;11809;56.390;-3.266;2024-03-17T22:03:37;9.15;;;1.00;;
23280;SDS011;11809;56.390;-3.266;2024-03-17T22:06:09;5.10;;;0.70;;
23280;SDS011;11809;56.390;-3.266;2024-03-17T22:08:39;7.28;;;0.80;;
23280;SDS011;11809;56.390;-3.266;2024-03-17T22:11:09;4.68;;;0.80;;
23280;SDS011;11809;56.390;-3.266;2024-03-17T22:13:39;3.17;;;0.82;;
23280;SDS011;11809;56.390;-3.266;2024-03-17T22:16:09;6.90;;;0.70;;
23280;SDS011;11809;56.390;-3.266;2024-03-17T22:18:40;6.93;;;0.60;;
23280;SDS011;11809;56.390;-3.266;2024-03-17T22:21:12;8.50;;;0.90;;
23280;SDS011;11809;56.390;-3.266;2024-03-17T22:23:42;4.35;;;0.80;;
23280;SDS011;11809;56.390;-3.266;2024-03-17T22:26:13;4.28;;;0.60;;
23280;SDS011;11809;56.390;-3.266;2024-03-17T22:28:42;3.25;;;0.40;;
23280;SDS011;11809;56.390;-3.266;2024-03-17T22:31:09;3.13;;;0.50;;
23280;SDS011;11809;56.390;-3.266;2024-03-17T22:33:39;1.58;;;0.63;;
23280;SDS011;11809;56.390;-3.266;2024-03-17T22:36:09;2.17;;;0.52;;
23280;SDS011;11809;56.390;-3.266;2024-03-17T22:38:41;12.25;;;0.98;;
23280;SDS011;11809;56.390;-3.266;2024-03-17T22:41:11;2.78;;;0.60;;
23280;SDS011;11809;56.390;-3.266;2024-03-17T22:43:41;5.60;;;0.50;;
23280;SDS011;11809;56.390;-3.266;2024-03-17T22:46:14;3.58;;;0.70;;
23280;SDS011;11809;56.390;-3.266;2024-03-17T22:48:44;4.40;;;0.52;;
23280;SDS011;11809;56.390;-3.266;2024-03-17T22:51:15;3.38;;;0.82;;
23280;SDS011;11809;56.390;-3.266;2024-03-17T22:53:48;4.72;;;0.55;;
23280;SDS011;11809;56.390;-3.266;2024-03-17T22:56:17;2.20;;;0.57;;
23280;SDS011;11809;56.390;-3.266;2024-03-17T22:58:53;3.97;;;0.60;;
23280;SDS011;11809;56.390;-3.266;2024-03-17T23:01:27;0.47;;;0.30;;
23280;SDS011;11809;56.390;-3.266;2024-03-17T23:03:58;3.35;;;0.40;;
23280;SDS011;11809;56.390;-3.266;2024-03-17T23:06:26;3.33;;;0.40;;
23280;SDS011;11809;56.390;-3.266;2024-03-17T23:08:58;1.67;;;0.40;;
23280;SDS011;11809;56.390;-3.266;2024-03-17T23:11:28;3.25;;;0.43;;
23280;SDS011;11809;56.390;-3.266;2024-03-17T23:13:57;1.02;;;0.45;;
23280;SDS011;11809;56.390;-3.266;2024-03-17T23:16:26;0.68;;;0.32;;
23280;SDS011;11809;56.390;-3.266;2024-03-17T23:18:56;0.93;;;0.40;;
23280;SDS011;11809;56.390;-3.266;2024-03-17T23:21:25;0.55;;;0.22;;
23280;SDS011;11809;56.390;-3.266;2024-03-17T23:23:54;0.30;;;0.30;;
23280;SDS011;11809;56.390;-3.266;2024-03-17T23:26:26;0.60;;;0.30;;
23280;SDS011;11809;56.390;-3.266;2024-03-17T23:28:56;1.52;;;0.40;;
23280;SDS011;11809;56.390;-3.266;2024-03-17T23:31:25;0.73;;;0.20;;
23280;SDS011;11809;56.390;-3.266;2024-03-17T23:33:54;0.40;;;0.22;;
23280;SDS011;11809;56.390;-3.266;2024-03-17T23:36:25;0.28;;;0.28;;
23280;SDS011;11809;56.390;-3.266;2024-03-17T23:38:54;1.48;;;0.40;;
23280;SDS011;11809;56.390;-3.266;2024-03-17T23:41:26;0.47;;;0.30;;
23280;SDS011;11809;56.390;-3.266;2024-03-17T23:43:55;1.23;;;0.45;;
23280;SDS011;11809;56.390;-3.266;2024-03-17T23:46:25;0.75;;;0.40;;
23280;SDS011;11809;56.390;-3.266;2024-03-17T23:48:54;1.90;;;0.32;;
23280;SDS011;11809;56.390;-3.266;2024-03-17T23:51:23;0.47;;;0.30;;
23280;SDS011;11809;56.390;-3.266;2024-03-17T23:53:52;1.17;;;0.30;;
23280;SDS011;11809;56.390;-3.266;2024-03-17T23:56:22;2.60;;;0.40;;
23280;SDS011;11809;56.390;-3.266;2024-03-17T23:58:54;0.90;;;0.30;;
